sensor_id;sensor_type;location;lat;lon;timestamp;P1;durP1;ratioP1;P2;durP2;ratioP2
59169;SDS011;52474;52.236;5.114;2022-12-18T00:01:42;79.60;;;22.15;;
59169;SDS011;52474;52.236;5.114;2022-12-18T00:04:11;80.97;;;23.60;;
59169;SDS011;52474;52.236;5.114;2022-12-18T00:06:44;82.30;;;24.15;;
59169;SDS011;52474;52.236;5.114;2022-12-18T00:09:10;70.90;;;22.50;;
59169;SDS011;52474;52.236;5.114;2022-12-18T00:11:35;75.65;;;22.30;;
59169;SDS011;52474;52.236;5.114;2022-12-18T00:14:01;53.47;;;18.17;;
59169;SDS011;52474;52.236;5.114;2022-12-18T00:16:27;66.40;;;20.38;;
59169;SDS011;52474;52.236;5.114;2022-12-18T00:18:57;75.47;;;22.92;;
59169;SDS011;52474;52.236;5.114;2022-12-18T00:21:24;68.70;;;21.67;;
59169;SDS011;52474;52.236;5.114;2022-12-18T00:23:50;63.45;;;20.30;;
59169;SDS011;52474;52.236;5.114;2022-12-18T00:26:17;90.43;;;24.70;;
59169;SDS011;52474;52.236;5.114;2022-12-18T00:28:44;50.95;;;17.58;;
59169;SDS011;52474;52.236;5.114;2022-12-18T00:31:15;80.60;;;22.90;;
59169;SDS011;52474;52.236;5.114;2022-12-18T00:33:43;61.33;;;20.52;;
59169;SDS011;52474;52.236;5.114;2022-12-18T00:36:10;74.55;;;24.92;;
59169;SDS011;52474;52.236;5.114;2022-12-18T00:38:40;84.10;;;24.95;;
59169;SDS011;52474;52.236;5.114;2022-12-18T00:41:08;79.53;;;21.70;;
59169;SDS011;52474;52.236;5.114;2022-12-18T00:43:35;86.68;;;25.83;;
59169;SDS011;52474;52.236;5.114;2022-12-18T00:46:01;85.78;;;22.77;;
59169;SDS011;52474;52.236;5.114;2022-12-18T00:48:27;78.38;;;24.45;;
59169;SDS011;52474;52.236;5.114;2022-12-18T00:50:53;84.50;;;27.48;;
59169;SDS011;52474;52.236;5.114;2022-12-18T00:53:19;73.95;;;22.98;;
59169;SDS011;52474;52.236;5.114;2022-12-18T00:55:45;83.80;;;24.70;;
59169;SDS011;52474;52.236;5.114;2022-12-18T00:58:12;76.45;;;23.65;;
59169;SDS011;52474;52.236;5.114;2022-12-18T01:00:39;80.28;;;23.23;;
59169;SDS011;52474;52.236;5.114;2022-12-18T01:03:05;75.88;;;21.52;;
59169;SDS011;52474;52.236;5.114;2022-12-18T01:05:31;83.40;;;25.20;;
59169;SDS011;52474;52.236;5.114;2022-12-18T01:07:57;77.30;;;25.30;;
59169;SDS011;52474;52.236;5.114;2022-12-18T01:10:23;73.65;;;22.30;;
59169;SDS011;52474;52.236;5.114;2022-12-18T01:12:49;86.88;;;23.38;;
59169;SDS011;52474;52.236;5.114;2022-12-18T01:15:17;71.97;;;23.25;;
59169;SDS011;52474;52.236;5.114;2022-12-18T01:17:43;54.70;;;20.73;;
59169;SDS011;52474;52.236;5.114;2022-12-18T01:20:09;74.22;;;24.85;;
59169;SDS011;52474;52.236;5.114;2022-12-18T01:22:37;83.80;;;24.67;;
59169;SDS011;52474;52.236;5.114;2022-12-18T01:25:03;79.43;;;23.92;;
59169;SDS011;52474;52.236;5.114;2022-12-18T01:27:30;66.63;;;20.05;;
59169;SDS011;52474;52.236;5.114;2022-12-18T01:29:56;65.45;;;20.33;;
59169;SDS011;52474;52.236;5.114;2022-12-18T01:32:22;63.10;;;18.38;;
59169;SDS011;52474;52.236;5.114;2022-12-18T01:34:49;59.75;;;17.73;;
59169;SDS011;52474;52.236;5.114;2022-12-18T01:37:14;76.45;;;22.67;;
59169;SDS011;52474;52.236;5.114;2022-12-18T01:39:40;75.55;;;23.27;;
59169;SDS011;52474;52.236;5.114;2022-12-18T01:42:13;53.83;;;19.27;;
59169;SDS011;52474;52.236;5.114;2022-12-18T01:47:35;72.47;;;22.08;;
59169;SDS011;52474;52.236;5.114;2022-12-18T01:55:28;67.78;;;20.08;;
59169;SDS011;52474;52.236;5.114;2022-12-18T01:57:57;71.65;;;22.80;;
59169;SDS011;52474;52.236;5.114;2022-12-18T02:00:25;79.57;;;23.20;;
59169;SDS011;52474;52.236;5.114;2022-12-18T02:02:51;78.22;;;23.58;;
59169;SDS011;52474;52.236;5.114;2022-12-18T02:05:20;70.32;;;23.40;;
59169;SDS011;52474;52.236;5.114;2022-12-18T02:08:02;74.50;;;24.20;;
59169;SDS011;52474;52.236;5.114;2022-12-18T02:10:53;61.03;;;20.30;;
59169;SDS011;52474;52.236;5.114;2022-12-18T02:16:23;80.25;;;24.25;;
59169;SDS011;52474;52.236;5.114;2022-12-18T02:18:57;71.75;;;23.17;;
59169;SDS011;52474;52.236;5.114;2022-12-18T02:24:03;67.30;;;21.92;;
59169;SDS011;52474;52.236;5.114;2022-12-18T02:26:37;71.20;;;22.63;;
59169;SDS011;52474;52.236;5.114;2022-12-18T02:29:18;76.97;;;24.38;;
59169;SDS011;52474;52.236;5.114;2022-12-18T02:31:50;64.88;;;20.65;;
59169;SDS011;52474;52.236;5.114;2022-12-18T02:34:19;68.93;;;22.15;;
59169;SDS011;52474;52.236;5.114;2022-12-18T02:36:50;71.10;;;22.40;;
59169;SDS011;52474;52.236;5.114;2022-12-18T02:39:18;67.50;;;23.33;;
59169;SDS011;52474;52.236;5.114;2022-12-18T02:41:57;72.85;;;21.73;;
59169;SDS011;52474;52.236;5.114;2022-12-18T02:44:24;76.47;;;23.33;;
59169;SDS011;52474;52.236;5.114;2022-12-18T02:46:51;73.75;;;23.45;;
59169;SDS011;52474;52.236;5.114;2022-12-18T02:49:24;75.07;;;23.42;;
59169;SDS011;52474;52.236;5.114;2022-12-18T02:55:04;68.53;;;22.85;;
59169;SDS011;52474;52.236;5.114;2022-12-18T02:57:48;71.93;;;22.10;;
59169;SDS011;52474;52.236;5.114;2022-12-18T03:00:24;62.70;;;21.40;;
59169;SDS011;52474;52.236;5.114;2022-12-18T03:03:29;66.93;;;21.90;;
59169;SDS011;52474;52.236;5.114;2022-12-18T03:06:23;81.67;;;24.07;;
59169;SDS011;52474;52.236;5.114;2022-12-18T03:08:51;77.40;;;23.38;;
59169;SDS011;52474;52.236;5.114;2022-12-18T03:11:24;55.50;;;20.55;;
59169;SDS011;52474;52.236;5.114;2022-12-18T03:14:12;80.93;;;22.83;;
59169;SDS011;52474;52.236;5.114;2022-12-18T03:16:46;70.97;;;22.75;;
59169;SDS011;52474;52.236;5.114;2022-12-18T03:19:17;69.90;;;22.35;;
59169;SDS011;52474;52.236;5.114;2022-12-18T03:21:49;64.57;;;22.75;;
59169;SDS011;52474;52.236;5.114;2022-12-18T03:24:18;71.75;;;23.02;;
59169;SDS011;52474;52.236;5.114;2022-12-18T03:26:48;65.97;;;22.95;;
59169;SDS011;52474;52.236;5.114;2022-12-18T03:29:21;60.83;;;21.17;;
59169;SDS011;52474;52.236;5.114;2022-12-18T03:31:54;64.90;;;20.85;;
59169;SDS011;52474;52.236;5.114;2022-12-18T03:34:29;70.72;;;23.13;;
59169;SDS011;52474;52.236;5.114;2022-12-18T03:37:01;75.55;;;25.88;;
59169;SDS011;52474;52.236;5.114;2022-12-18T03:39:27;70.28;;;23.80;;
59169;SDS011;52474;52.236;5.114;2022-12-18T03:47:28;68.63;;;22.08;;
59169;SDS011;52474;52.236;5.114;2022-12-18T03:50:09;54.20;;;19.00;;
59169;SDS011;52474;52.236;5.114;2022-12-18T03:52:57;71.40;;;21.73;;
59169;SDS011;52474;52.236;5.114;2022-12-18T03:55:28;66.90;;;22.30;;
59169;SDS011;52474;52.236;5.114;2022-12-18T03:58:02;65.35;;;21.58;;
59169;SDS011;52474;52.236;5.114;2022-12-18T04:00:44;68.40;;;22.20;;
59169;SDS011;52474;52.236;5.114;2022-12-18T04:03:11;66.60;;;22.42;;
59169;SDS011;52474;52.236;5.114;2022-12-18T04:05:43;62.63;;;20.23;;
59169;SDS011;52474;52.236;5.114;2022-12-18T04:08:12;72.15;;;21.98;;
59169;SDS011;52474;52.236;5.114;2022-12-18T04:10:42;53.17;;;18.08;;
59169;SDS011;52474;52.236;5.114;2022-12-18T04:13:09;64.95;;;21.83;;
59169;SDS011;52474;52.236;5.114;2022-12-18T04:15:35;66.57;;;22.88;;
59169;SDS011;52474;52.236;5.114;2022-12-18T04:18:04;62.58;;;22.75;;
59169;SDS011;52474;52.236;5.114;2022-12-18T04:20:37;59.17;;;21.77;;
59169;SDS011;52474;52.236;5.114;2022-12-18T04:23:02;55.58;;;20.60;;
59169;SDS011;52474;52.236;5.114;2022-12-18T04:25:28;61.47;;;22.00;;
59169;SDS011;52474;52.236;5.114;2022-12-18T04:28:06;56.22;;;20.45;;
59169;SDS011;52474;52.236;5.114;2022-12-18T04:30:34;58.13;;;21.95;;
59169;SDS011;52474;52.236;5.114;2022-12-18T04:33:00;65.72;;;22.35;;
59169;SDS011;52474;52.236;5.114;2022-12-18T04:35:27;51.00;;;21.08;;
59169;SDS011;52474;52.236;5.114;2022-12-18T04:37:53;62.95;;;20.20;;
59169;SDS011;52474;52.236;5.114;2022-12-18T04:40:19;53.40;;;18.67;;
59169;SDS011;52474;52.236;5.114;2022-12-18T04:42:47;46.60;;;17.33;;
59169;SDS011;52474;52.236;5.114;2022-12-18T04:45:12;48.45;;;19.42;;
59169;SDS011;52474;52.236;5.114;2022-12-18T04:47:38;55.28;;;21.05;;
59169;SDS011;52474;52.236;5.114;2022-12-18T04:50:04;53.65;;;21.17;;
59169;SDS011;52474;52.236;5.114;2022-12-18T04:52:30;53.28;;;20.83;;
59169;SDS011;52474;52.236;5.114;2022-12-18T04:54:55;55.67;;;20.88;;
59169;SDS011;52474;52.236;5.114;2022-12-18T04:57:21;55.13;;;20.35;;
59169;SDS011;52474;52.236;5.114;2022-12-18T04:59:47;52.55;;;18.98;;
59169;SDS011;52474;52.236;5.114;2022-12-18T05:02:12;46.28;;;19.08;;
59169;SDS011;52474;52.236;5.114;2022-12-18T05:04:38;53.85;;;20.65;;
59169;SDS011;52474;52.236;5.114;2022-12-18T05:07:04;51.55;;;20.08;;
59169;SDS011;52474;52.236;5.114;2022-12-18T05:09:29;59.40;;;19.50;;
59169;SDS011;52474;52.236;5.114;2022-12-18T05:11:55;57.13;;;19.88;;
59169;SDS011;52474;52.236;5.114;2022-12-18T05:14:21;48.47;;;19.52;;
59169;SDS011;52474;52.236;5.114;2022-12-18T05:16:47;50.42;;;18.08;;
59169;SDS011;52474;52.236;5.114;2022-12-18T05:19:13;47.83;;;19.98;;
59169;SDS011;52474;52.236;5.114;2022-12-18T05:21:38;50.95;;;19.15;;
59169;SDS011;52474;52.236;5.114;2022-12-18T05:24:04;46.65;;;17.95;;
59169;SDS011;52474;52.236;5.114;2022-12-18T05:26:30;54.85;;;19.10;;
59169;SDS011;52474;52.236;5.114;2022-12-18T05:28:56;48.38;;;18.08;;
59169;SDS011;52474;52.236;5.114;2022-12-18T05:31:24;48.65;;;16.60;;
59169;SDS011;52474;52.236;5.114;2022-12-18T05:33:50;45.78;;;16.95;;
59169;SDS011;52474;52.236;5.114;2022-12-18T05:36:16;45.90;;;16.77;;
59169;SDS011;52474;52.236;5.114;2022-12-18T05:38:41;44.72;;;17.00;;
59169;SDS011;52474;52.236;5.114;2022-12-18T05:41:07;38.08;;;16.10;;
59169;SDS011;52474;52.236;5.114;2022-12-18T05:43:37;52.67;;;18.60;;
59169;SDS011;52474;52.236;5.114;2022-12-18T05:46:08;34.90;;;16.15;;
59169;SDS011;52474;52.236;5.114;2022-12-18T05:48:38;38.42;;;15.38;;
59169;SDS011;52474;52.236;5.114;2022-12-18T05:51:08;36.58;;;15.27;;
59169;SDS011;52474;52.236;5.114;2022-12-18T05:53:36;41.85;;;15.95;;
59169;SDS011;52474;52.236;5.114;2022-12-18T05:56:03;40.80;;;15.45;;
59169;SDS011;52474;52.236;5.114;2022-12-18T05:58:30;39.25;;;14.98;;
59169;SDS011;52474;52.236;5.114;2022-12-18T06:00:57;39.17;;;15.73;;
59169;SDS011;52474;52.236;5.114;2022-12-18T06:03:30;43.55;;;17.00;;
59169;SDS011;52474;52.236;5.114;2022-12-18T06:05:56;43.83;;;16.58;;
59169;SDS011;52474;52.236;5.114;2022-12-18T06:08:22;38.55;;;15.70;;
59169;SDS011;52474;52.236;5.114;2022-12-18T06:10:51;38.97;;;14.13;;
59169;SDS011;52474;52.236;5.114;2022-12-18T06:13:18;36.97;;;14.63;;
59169;SDS011;52474;52.236;5.114;2022-12-18T06:15:44;40.70;;;15.25;;
59169;SDS011;52474;52.236;5.114;2022-12-18T06:18:11;41.08;;;15.88;;
59169;SDS011;52474;52.236;5.114;2022-12-18T06:20:37;33.47;;;14.88;;
59169;SDS011;52474;52.236;5.114;2022-12-18T06:23:05;34.30;;;13.18;;
59169;SDS011;52474;52.236;5.114;2022-12-18T06:25:31;27.83;;;12.60;;
59169;SDS011;52474;52.236;5.114;2022-12-18T06:27:58;38.63;;;13.30;;
59169;SDS011;52474;52.236;5.114;2022-12-18T06:30:24;37.55;;;13.85;;
59169;SDS011;52474;52.236;5.114;2022-12-18T06:32:50;34.83;;;13.57;;
59169;SDS011;52474;52.236;5.114;2022-12-18T06:35:16;32.30;;;13.98;;
59169;SDS011;52474;52.236;5.114;2022-12-18T06:37:42;32.28;;;13.80;;
59169;SDS011;52474;52.236;5.114;2022-12-18T06:40:07;35.85;;;14.73;;
59169;SDS011;52474;52.236;5.114;2022-12-18T06:42:33;31.17;;;13.23;;
59169;SDS011;52474;52.236;5.114;2022-12-18T06:44:59;34.78;;;13.63;;
59169;SDS011;52474;52.236;5.114;2022-12-18T06:47:25;32.03;;;13.05;;
59169;SDS011;52474;52.236;5.114;2022-12-18T06:49:51;28.85;;;11.52;;
59169;SDS011;52474;52.236;5.114;2022-12-18T06:52:16;34.70;;;13.07;;
59169;SDS011;52474;52.236;5.114;2022-12-18T06:54:42;32.88;;;13.95;;
59169;SDS011;52474;52.236;5.114;2022-12-18T06:57:08;30.83;;;12.23;;
59169;SDS011;52474;52.236;5.114;2022-12-18T06:59:34;28.85;;;12.32;;
59169;SDS011;52474;52.236;5.114;2022-12-18T07:01:59;32.83;;;13.00;;
59169;SDS011;52474;52.236;5.114;2022-12-18T07:04:28;30.80;;;12.88;;
59169;SDS011;52474;52.236;5.114;2022-12-18T07:06:54;29.35;;;12.35;;
59169;SDS011;52474;52.236;5.114;2022-12-18T07:09:21;27.15;;;12.38;;
59169;SDS011;52474;52.236;5.114;2022-12-18T07:11:47;29.13;;;11.65;;
59169;SDS011;52474;52.236;5.114;2022-12-18T07:14:12;30.45;;;13.20;;
59169;SDS011;52474;52.236;5.114;2022-12-18T07:16:38;32.30;;;13.35;;
59169;SDS011;52474;52.236;5.114;2022-12-18T07:19:04;29.25;;;13.10;;
59169;SDS011;52474;52.236;5.114;2022-12-18T07:21:30;35.45;;;13.48;;
59169;SDS011;52474;52.236;5.114;2022-12-18T07:23:55;36.67;;;13.93;;
59169;SDS011;52474;52.236;5.114;2022-12-18T07:26:21;31.38;;;13.90;;
59169;SDS011;52474;52.236;5.114;2022-12-18T07:28:48;32.97;;;13.10;;
59169;SDS011;52474;52.236;5.114;2022-12-18T07:31:15;28.75;;;12.60;;
59169;SDS011;52474;52.236;5.114;2022-12-18T07:33:44;31.13;;;13.88;;
59169;SDS011;52474;52.236;5.114;2022-12-18T07:36:10;26.60;;;11.73;;
59169;SDS011;52474;52.236;5.114;2022-12-18T07:38:37;28.13;;;12.32;;
59169;SDS011;52474;52.236;5.114;2022-12-18T07:41:03;34.40;;;12.93;;
59169;SDS011;52474;52.236;5.114;2022-12-18T07:43:30;28.85;;;11.45;;
59169;SDS011;52474;52.236;5.114;2022-12-18T07:45:56;28.25;;;11.38;;
59169;SDS011;52474;52.236;5.114;2022-12-18T07:48:22;31.65;;;13.35;;
59169;SDS011;52474;52.236;5.114;2022-12-18T07:50:47;22.67;;;11.18;;
59169;SDS011;52474;52.236;5.114;2022-12-18T07:53:13;27.80;;;11.63;;
59169;SDS011;52474;52.236;5.114;2022-12-18T07:55:40;33.20;;;13.30;;
59169;SDS011;52474;52.236;5.114;2022-12-18T07:58:08;26.48;;;12.70;;
59169;SDS011;52474;52.236;5.114;2022-12-18T08:00:34;26.58;;;13.38;;
59169;SDS011;52474;52.236;5.114;2022-12-18T08:03:00;27.77;;;13.07;;
59169;SDS011;52474;52.236;5.114;2022-12-18T08:05:26;27.75;;;13.02;;
59169;SDS011;52474;52.236;5.114;2022-12-18T08:07:53;29.38;;;12.77;;
59169;SDS011;52474;52.236;5.114;2022-12-18T08:10:19;33.38;;;13.32;;
59169;SDS011;52474;52.236;5.114;2022-12-18T08:12:45;27.70;;;12.60;;
59169;SDS011;52474;52.236;5.114;2022-12-18T08:15:13;26.52;;;12.00;;
59169;SDS011;52474;52.236;5.114;2022-12-18T08:17:39;31.00;;;13.52;;
59169;SDS011;52474;52.236;5.114;2022-12-18T08:20:05;26.60;;;11.77;;
59169;SDS011;52474;52.236;5.114;2022-12-18T08:22:33;27.42;;;13.50;;
59169;SDS011;52474;52.236;5.114;2022-12-18T08:25:00;27.33;;;12.63;;
59169;SDS011;52474;52.236;5.114;2022-12-18T08:27:25;27.23;;;11.77;;
59169;SDS011;52474;52.236;5.114;2022-12-18T08:29:51;31.00;;;13.25;;
59169;SDS011;52474;52.236;5.114;2022-12-18T08:32:17;25.27;;;11.63;;
59169;SDS011;52474;52.236;5.114;2022-12-18T08:34:43;28.65;;;11.45;;
59169;SDS011;52474;52.236;5.114;2022-12-18T08:37:17;27.30;;;11.98;;
59169;SDS011;52474;52.236;5.114;2022-12-18T08:39:43;31.60;;;12.98;;
59169;SDS011;52474;52.236;5.114;2022-12-18T08:42:09;25.33;;;11.82;;
59169;SDS011;52474;52.236;5.114;2022-12-18T08:44:54;26.42;;;12.65;;
59169;SDS011;52474;52.236;5.114;2022-12-18T08:47:20;23.25;;;11.18;;
59169;SDS011;52474;52.236;5.114;2022-12-18T08:49:45;28.70;;;12.18;;
59169;SDS011;52474;52.236;5.114;2022-12-18T08:52:11;29.45;;;14.25;;
59169;SDS011;52474;52.236;5.114;2022-12-18T08:54:37;27.10;;;13.43;;
59169;SDS011;52474;52.236;5.114;2022-12-18T08:57:03;26.13;;;13.10;;
59169;SDS011;52474;52.236;5.114;2022-12-18T08:59:28;29.00;;;12.77;;
59169;SDS011;52474;52.236;5.114;2022-12-18T09:01:54;27.45;;;12.38;;
59169;SDS011;52474;52.236;5.114;2022-12-18T09:04:20;28.95;;;13.95;;
59169;SDS011;52474;52.236;5.114;2022-12-18T09:06:46;25.00;;;12.25;;
59169;SDS011;52474;52.236;5.114;2022-12-18T09:09:12;26.75;;;12.20;;
59169;SDS011;52474;52.236;5.114;2022-12-18T09:11:38;31.13;;;13.93;;
59169;SDS011;52474;52.236;5.114;2022-12-18T09:14:04;30.02;;;13.23;;
59169;SDS011;52474;52.236;5.114;2022-12-18T09:16:30;24.02;;;12.18;;
59169;SDS011;52474;52.236;5.114;2022-12-18T09:18:57;24.02;;;11.13;;
59169;SDS011;52474;52.236;5.114;2022-12-18T09:21:27;24.65;;;11.60;;
59169;SDS011;52474;52.236;5.114;2022-12-18T09:23:55;22.65;;;11.75;;
59169;SDS011;52474;52.236;5.114;2022-12-18T09:26:22;27.02;;;12.30;;
59169;SDS011;52474;52.236;5.114;2022-12-18T09:28:49;23.80;;;12.65;;
59169;SDS011;52474;52.236;5.114;2022-12-18T09:31:16;27.67;;;12.23;;
59169;SDS011;52474;52.236;5.114;2022-12-18T09:33:43;28.38;;;12.40;;
59169;SDS011;52474;52.236;5.114;2022-12-18T09:36:11;28.15;;;11.98;;
59169;SDS011;52474;52.236;5.114;2022-12-18T09:38:39;23.27;;;12.07;;
59169;SDS011;52474;52.236;5.114;2022-12-18T09:41:13;23.15;;;11.82;;
59169;SDS011;52474;52.236;5.114;2022-12-18T09:43:48;26.42;;;13.38;;
59169;SDS011;52474;52.236;5.114;2022-12-18T09:46:28;23.67;;;11.77;;
59169;SDS011;52474;52.236;5.114;2022-12-18T09:54:13;25.60;;;12.57;;
59169;SDS011;52474;52.236;5.114;2022-12-18T09:56:47;20.85;;;12.23;;
59169;SDS011;52474;52.236;5.114;2022-12-18T09:59:16;25.27;;;13.02;;
59169;SDS011;52474;52.236;5.114;2022-12-18T10:01:46;25.83;;;11.10;;
59169;SDS011;52474;52.236;5.114;2022-12-18T10:04:12;22.63;;;11.60;;
59169;SDS011;52474;52.236;5.114;2022-12-18T10:09:43;25.27;;;12.15;;
59169;SDS011;52474;52.236;5.114;2022-12-18T10:12:25;21.73;;;11.80;;
59169;SDS011;52474;52.236;5.114;2022-12-18T10:14:57;25.95;;;12.23;;
59169;SDS011;52474;52.236;5.114;2022-12-18T10:20:34;19.42;;;10.73;;
59169;SDS011;52474;52.236;5.114;2022-12-18T10:28:33;19.75;;;9.55;;
59169;SDS011;52474;52.236;5.114;2022-12-18T10:31:18;25.63;;;11.40;;
59169;SDS011;52474;52.236;5.114;2022-12-18T10:33:46;30.98;;;14.48;;
59169;SDS011;52474;52.236;5.114;2022-12-18T10:36:12;29.40;;;12.73;;
59169;SDS011;52474;52.236;5.114;2022-12-18T10:38:38;24.38;;;11.90;;
59169;SDS011;52474;52.236;5.114;2022-12-18T10:41:05;24.65;;;12.65;;
59169;SDS011;52474;52.236;5.114;2022-12-18T10:46:37;24.77;;;12.63;;
59169;SDS011;52474;52.236;5.114;2022-12-18T10:49:03;25.75;;;12.20;;
59169;SDS011;52474;52.236;5.114;2022-12-18T10:51:32;26.35;;;12.20;;
59169;SDS011;52474;52.236;5.114;2022-12-18T10:54:00;18.17;;;10.15;;
59169;SDS011;52474;52.236;5.114;2022-12-18T10:56:27;25.35;;;11.82;;
59169;SDS011;52474;52.236;5.114;2022-12-18T10:58:58;22.85;;;11.95;;
59169;SDS011;52474;52.236;5.114;2022-12-18T11:04:18;20.50;;;11.30;;
59169;SDS011;52474;52.236;5.114;2022-12-18T11:07:03;26.42;;;12.20;;
59169;SDS011;52474;52.236;5.114;2022-12-18T11:09:32;23.50;;;11.63;;
59169;SDS011;52474;52.236;5.114;2022-12-18T11:12:03;23.75;;;11.43;;
59169;SDS011;52474;52.236;5.114;2022-12-18T11:14:32;22.90;;;11.27;;
59169;SDS011;52474;52.236;5.114;2022-12-18T11:17:17;22.98;;;12.00;;
59169;SDS011;52474;52.236;5.114;2022-12-18T11:20:05;24.80;;;11.88;;
59169;SDS011;52474;52.236;5.114;2022-12-18T11:22:59;28.85;;;12.23;;
59169;SDS011;52474;52.236;5.114;2022-12-18T11:25:27;20.35;;;10.65;;
59169;SDS011;52474;52.236;5.114;2022-12-18T11:27:55;24.02;;;11.50;;
59169;SDS011;52474;52.236;5.114;2022-12-18T11:30:29;21.35;;;10.60;;
59169;SDS011;52474;52.236;5.114;2022-12-18T11:35:46;21.13;;;12.00;;
59169;SDS011;52474;52.236;5.114;2022-12-18T11:38:16;24.35;;;10.77;;
59169;SDS011;52474;52.236;5.114;2022-12-18T11:40:50;25.85;;;11.75;;
59169;SDS011;52474;52.236;5.114;2022-12-18T11:43:39;23.48;;;11.40;;
59169;SDS011;52474;52.236;5.114;2022-12-18T11:46:14;22.15;;;12.35;;
59169;SDS011;52474;52.236;5.114;2022-12-18T11:52:33;17.73;;;10.00;;
59169;SDS011;52474;52.236;5.114;2022-12-18T11:54:46;21.42;;;10.43;;
59169;SDS011;52474;52.236;5.114;2022-12-18T12:00:13;21.27;;;10.45;;
59169;SDS011;52474;52.236;5.114;2022-12-18T12:11:35;25.13;;;11.13;;
59169;SDS011;52474;52.236;5.114;2022-12-18T12:14:19;20.80;;;10.65;;
59169;SDS011;52474;52.236;5.114;2022-12-18T12:20:06;23.10;;;11.00;;
59169;SDS011;52474;52.236;5.114;2022-12-18T12:25:43;27.50;;;11.38;;
59169;SDS011;52474;52.236;5.114;2022-12-18T12:31:07;21.48;;;11.32;;
59169;SDS011;52474;52.236;5.114;2022-12-18T12:39:31;20.55;;;10.80;;
59169;SDS011;52474;52.236;5.114;2022-12-18T12:42:03;29.45;;;11.25;;
59169;SDS011;52474;52.236;5.114;2022-12-18T12:44:56;22.45;;;11.00;;
59169;SDS011;52474;52.236;5.114;2022-12-18T12:47:28;22.58;;;10.50;;
59169;SDS011;52474;52.236;5.114;2022-12-18T12:49:58;24.33;;;11.73;;
59169;SDS011;52474;52.236;5.114;2022-12-18T12:52:30;23.73;;;11.10;;
59169;SDS011;52474;52.236;5.114;2022-12-18T12:55:02;17.08;;;8.82;;
59169;SDS011;52474;52.236;5.114;2022-12-18T12:57:31;20.50;;;10.37;;
59169;SDS011;52474;52.236;5.114;2022-12-18T13:00:09;21.05;;;10.38;;
59169;SDS011;52474;52.236;5.114;2022-12-18T13:05:27;20.88;;;10.38;;
59169;SDS011;52474;52.236;5.114;2022-12-18T13:08:08;19.75;;;10.85;;
59169;SDS011;52474;52.236;5.114;2022-12-18T13:13:04;23.33;;;11.10;;
59169;SDS011;52474;52.236;5.114;2022-12-18T13:15:37;19.13;;;9.82;;
59169;SDS011;52474;52.236;5.114;2022-12-18T13:20:35;22.88;;;11.18;;
59169;SDS011;52474;52.236;5.114;2022-12-18T13:23:17;22.58;;;11.18;;
59169;SDS011;52474;52.236;5.114;2022-12-18T13:25:45;19.80;;;10.40;;
59169;SDS011;52474;52.236;5.114;2022-12-18T13:28:12;20.88;;;10.20;;
59169;SDS011;52474;52.236;5.114;2022-12-18T13:41:04;22.00;;;10.45;;
59169;SDS011;52474;52.236;5.114;2022-12-18T13:43:39;21.33;;;10.88;;
59169;SDS011;52474;52.236;5.114;2022-12-18T13:46:21;23.52;;;10.70;;
59169;SDS011;52474;52.236;5.114;2022-12-18T13:49:00;21.77;;;10.73;;
59169;SDS011;52474;52.236;5.114;2022-12-18T13:51:30;19.25;;;10.60;;
59169;SDS011;52474;52.236;5.114;2022-12-18T13:53:59;21.42;;;10.65;;
59169;SDS011;52474;52.236;5.114;2022-12-18T13:56:29;22.95;;;10.43;;
59169;SDS011;52474;52.236;5.114;2022-12-18T14:02:21;23.35;;;10.77;;
59169;SDS011;52474;52.236;5.114;2022-12-18T14:04:49;21.42;;;10.30;;
59169;SDS011;52474;52.236;5.114;2022-12-18T14:07:20;21.58;;;10.63;;
59169;SDS011;52474;52.236;5.114;2022-12-18T14:09:58;21.20;;;10.70;;
59169;SDS011;52474;52.236;5.114;2022-12-18T14:15:32;21.80;;;10.68;;
59169;SDS011;52474;52.236;5.114;2022-12-18T14:17:59;25.77;;;10.30;;
59169;SDS011;52474;52.236;5.114;2022-12-18T14:20:29;20.83;;;10.93;;
59169;SDS011;52474;52.236;5.114;2022-12-18T14:22:57;20.23;;;9.90;;
59169;SDS011;52474;52.236;5.114;2022-12-18T14:25:27;19.90;;;9.90;;
59169;SDS011;52474;52.236;5.114;2022-12-18T14:30:35;22.48;;;10.60;;
59169;SDS011;52474;52.236;5.114;2022-12-18T14:35:41;22.83;;;10.25;;
59169;SDS011;52474;52.236;5.114;2022-12-18T14:38:31;26.70;;;11.48;;
59169;SDS011;52474;52.236;5.114;2022-12-18T14:41:06;23.63;;;11.65;;
59169;SDS011;52474;52.236;5.114;2022-12-18T14:43:33;22.13;;;10.85;;
59169;SDS011;52474;52.236;5.114;2022-12-18T14:46:01;24.80;;;10.70;;
59169;SDS011;52474;52.236;5.114;2022-12-18T14:51:21;25.35;;;11.73;;
59169;SDS011;52474;52.236;5.114;2022-12-18T14:53:52;23.42;;;11.07;;
59169;SDS011;52474;52.236;5.114;2022-12-18T14:56:24;22.23;;;11.00;;
59169;SDS011;52474;52.236;5.114;2022-12-18T14:58:53;20.00;;;9.95;;
59169;SDS011;52474;52.236;5.114;2022-12-18T15:01:20;19.30;;;9.55;;
59169;SDS011;52474;52.236;5.114;2022-12-18T15:03:50;23.05;;;9.95;;
59169;SDS011;52474;52.236;5.114;2022-12-18T15:06:50;23.33;;;11.18;;
59169;SDS011;52474;52.236;5.114;2022-12-18T15:09:22;25.42;;;11.77;;
59169;SDS011;52474;52.236;5.114;2022-12-18T15:11:54;24.17;;;11.70;;
59169;SDS011;52474;52.236;5.114;2022-12-18T15:14:22;21.90;;;11.23;;
59169;SDS011;52474;52.236;5.114;2022-12-18T15:16:58;22.05;;;10.93;;
59169;SDS011;52474;52.236;5.114;2022-12-18T15:19:31;24.48;;;10.82;;
59169;SDS011;52474;52.236;5.114;2022-12-18T15:22:00;24.70;;;10.05;;
59169;SDS011;52474;52.236;5.114;2022-12-18T15:24:28;22.13;;;10.23;;
59169;SDS011;52474;52.236;5.114;2022-12-18T15:26:57;24.55;;;11.93;;
59169;SDS011;52474;52.236;5.114;2022-12-18T15:29:24;25.00;;;11.30;;
59169;SDS011;52474;52.236;5.114;2022-12-18T15:32:00;25.63;;;12.27;;
59169;SDS011;52474;52.236;5.114;2022-12-18T15:34:31;26.60;;;10.65;;
59169;SDS011;52474;52.236;5.114;2022-12-18T15:36:59;21.00;;;10.43;;
59169;SDS011;52474;52.236;5.114;2022-12-18T15:39:25;23.98;;;10.73;;
59169;SDS011;52474;52.236;5.114;2022-12-18T15:41:51;23.83;;;12.00;;
59169;SDS011;52474;52.236;5.114;2022-12-18T15:44:36;20.30;;;9.57;;
59169;SDS011;52474;52.236;5.114;2022-12-18T15:47:02;23.55;;;11.25;;
59169;SDS011;52474;52.236;5.114;2022-12-18T15:49:28;22.58;;;10.90;;
59169;SDS011;52474;52.236;5.114;2022-12-18T15:51:57;22.50;;;11.30;;
59169;SDS011;52474;52.236;5.114;2022-12-18T15:54:25;21.58;;;10.20;;
59169;SDS011;52474;52.236;5.114;2022-12-18T15:57:10;21.65;;;10.15;;
59169;SDS011;52474;52.236;5.114;2022-12-18T15:59:52;28.23;;;11.90;;
59169;SDS011;52474;52.236;5.114;2022-12-18T16:02:24;25.60;;;12.10;;
59169;SDS011;52474;52.236;5.114;2022-12-18T16:04:51;25.40;;;11.48;;
59169;SDS011;52474;52.236;5.114;2022-12-18T16:07:17;28.33;;;12.57;;
59169;SDS011;52474;52.236;5.114;2022-12-18T16:09:43;22.45;;;10.27;;
59169;SDS011;52474;52.236;5.114;2022-12-18T16:12:13;25.42;;;10.65;;
59169;SDS011;52474;52.236;5.114;2022-12-18T16:14:42;26.13;;;11.93;;
59169;SDS011;52474;52.236;5.114;2022-12-18T16:17:09;28.83;;;12.35;;
59169;SDS011;52474;52.236;5.114;2022-12-18T16:19:37;32.47;;;12.75;;
59169;SDS011;52474;52.236;5.114;2022-12-18T16:22:02;27.85;;;12.75;;
59169;SDS011;52474;52.236;5.114;2022-12-18T16:24:29;23.83;;;10.85;;
59169;SDS011;52474;52.236;5.114;2022-12-18T16:26:58;23.98;;;11.48;;